Airport ID:KSMD
Update Time (UTC):25/10/2020 08:29
Wind Speed (Knots):5
Wind Direction (Magnetic):40
Temperature (°C):4.2
Dew Point (°C):1
Humidity (%):79.8
Altimeter (inHg):30.2
Density Altitude (Feet):
Visibility (Miles):10
Clouds (Hundreds of feet):OVC090
Present Weather:
METAR:METAR KSMD 250825Z AUTO 03005KT 10SM OVC090 04/01 A3019 RMK A01

The data displayed is for advisory purposes only and is not to be used for flight planning or operations.